createdAt,value
2023-04-07T00:01:19.520Z,7.00
2023-04-07T00:03:52.596Z,7.00
2023-04-07T00:06:25.807Z,6.90
2023-04-07T00:08:58.777Z,6.90
2023-04-07T00:11:31.776Z,6.80
2023-04-07T00:14:06.151Z,6.80
2023-04-07T00:16:39.066Z,6.70
2023-04-07T00:19:12.075Z,6.50
2023-04-07T00:21:45.066Z,6.50
2023-04-07T00:24:31.046Z,6.40
2023-04-07T00:27:07.083Z,6.40
2023-04-07T00:29:43.663Z,6.40
2023-04-07T00:32:16.649Z,6.30
2023-04-07T00:34:49.599Z,6.20
2023-04-07T00:37:22.736Z,6.20
2023-04-07T00:39:57.242Z,6.20
2023-04-07T00:42:30.265Z,6.20
2023-04-07T00:45:05.431Z,6.20
2023-04-07T00:47:38.472Z,6.20
2023-04-07T00:50:13.048Z,6.20
2023-04-07T00:52:47.016Z,6.10
2023-04-07T00:55:20.373Z,6.00
2023-04-07T00:57:53.417Z,6.00
2023-04-07T01:00:29.192Z,6.00
2023-04-07T01:03:11.964Z,5.90
2023-04-07T01:05:54.588Z,5.90
2023-04-07T01:08:36.316Z,5.80
2023-04-07T01:11:14.949Z,5.80
2023-04-07T01:13:51.540Z,5.70
2023-04-07T01:16:37.107Z,5.70
2023-04-07T01:19:17.830Z,5.70
2023-04-07T01:21:54.057Z,5.70
2023-04-07T01:24:47.073Z,5.80
2023-04-07T01:27:30.042Z,5.80
2023-04-07T01:30:06.590Z,5.80
2023-04-07T01:32:42.720Z,5.70
2023-04-07T01:35:17.727Z,5.70
2023-04-07T01:37:52.170Z,5.70
2023-04-07T01:40:26.741Z,5.70
2023-04-07T01:43:01.134Z,5.80
2023-04-07T01:45:37.022Z,5.90
2023-04-07T01:48:10.329Z,5.90
2023-04-07T01:50:44.533Z,5.90
2023-04-07T01:53:18.164Z,5.80
2023-04-07T01:55:51.800Z,5.90
2023-04-07T01:58:25.760Z,5.80
2023-04-07T02:01:00.739Z,5.80
2023-04-07T02:03:42.245Z,5.80
2023-04-07T02:06:20.775Z,5.70
2023-04-07T02:09:00.677Z,5.70
2023-04-07T02:11:35.735Z,5.70
2023-04-07T02:14:09.428Z,5.60
2023-04-07T02:16:45.709Z,5.60
2023-04-07T02:19:20.879Z,5.70
2023-04-07T02:21:55.016Z,5.70
2023-04-07T02:24:27.990Z,5.70
2023-04-07T02:27:02.153Z,5.80
2023-04-07T02:29:35.354Z,5.80
2023-04-07T02:32:09.835Z,5.90
2023-04-07T02:34:42.983Z,5.80
2023-04-07T02:37:16.051Z,5.80
2023-04-07T02:39:49.083Z,5.90
2023-04-07T02:42:22.126Z,5.90
2023-04-07T02:44:55.146Z,5.90
2023-04-07T02:47:29.528Z,5.90
2023-04-07T02:50:02.646Z,5.90
2023-04-07T02:52:35.793Z,5.90
2023-04-07T02:55:10.073Z,5.70
2023-04-07T02:57:43.306Z,5.70
2023-04-07T03:00:17.454Z,5.70
2023-04-07T03:02:52.045Z,5.70
2023-04-07T03:05:25.147Z,5.70
2023-04-07T03:07:58.443Z,5.70
2023-04-07T03:10:31.498Z,5.70
2023-04-07T03:13:04.576Z,5.70
2023-04-07T03:15:37.604Z,5.70
2023-04-07T03:18:12.127Z,5.70
2023-04-07T03:20:47.581Z,5.80
2023-04-07T03:23:20.632Z,5.80
2023-04-07T03:25:53.664Z,5.80
2023-04-07T03:28:26.725Z,5.80
2023-04-07T03:30:59.875Z,5.80
2023-04-07T03:33:34.322Z,5.80
2023-04-07T03:36:09.282Z,5.80
2023-04-07T03:38:42.372Z,5.90
2023-04-07T03:41:15.510Z,5.90
2023-04-07T03:43:48.565Z,5.90
2023-04-07T03:46:22.037Z,5.90
2023-04-07T03:48:56.433Z,6.00
2023-04-07T03:51:29.500Z,5.90
2023-04-07T03:54:02.576Z,5.90
2023-04-07T03:56:35.739Z,5.90
2023-04-07T03:59:08.917Z,5.90
2023-04-07T04:01:42.161Z,5.90
2023-04-07T04:04:17.355Z,5.90
2023-04-07T04:06:51.227Z,5.90
2023-04-07T04:09:24.363Z,5.90
2023-04-07T04:11:57.417Z,5.90
2023-04-07T04:14:30.440Z,5.90
2023-04-07T04:17:05.529Z,5.90
2023-04-07T04:19:40.341Z,6.00
2023-04-07T04:22:13.441Z,6.00
2023-04-07T04:24:46.433Z,6.00
2023-04-07T04:27:19.393Z,5.90
2023-04-07T04:29:52.443Z,6.00
2023-04-07T04:32:25.494Z,5.90
2023-04-07T04:34:59.949Z,5.90
2023-04-07T04:37:32.974Z,5.90
2023-04-07T04:40:08.607Z,5.90
2023-04-07T04:42:42.036Z,5.80
2023-04-07T04:45:15.068Z,5.80
2023-04-07T04:47:48.138Z,5.70
2023-04-07T04:50:22.607Z,5.70
2023-04-07T04:52:55.744Z,5.60
2023-04-07T04:55:28.757Z,5.60
2023-04-07T04:58:01.788Z,5.60
2023-04-07T05:00:34.896Z,5.70
2023-04-07T05:03:08.096Z,5.70
2023-04-07T05:05:42.626Z,5.60
2023-04-07T05:08:15.636Z,5.50
2023-04-07T05:10:48.707Z,5.50
2023-04-07T05:13:21.687Z,5.60
2023-04-07T05:15:55.121Z,5.60
2023-04-07T05:18:28.626Z,5.60
2023-04-07T05:21:02.969Z,5.60
2023-04-07T05:23:36.442Z,5.70
2023-04-07T05:26:09.648Z,5.70
2023-04-07T05:28:42.628Z,5.70
2023-04-07T05:31:15.708Z,5.70
2023-04-07T05:33:49.065Z,5.70
2023-04-07T05:36:23.725Z,5.70
2023-04-07T05:38:56.821Z,5.70
2023-04-07T05:41:29.945Z,5.80
2023-04-07T05:44:02.924Z,5.80
2023-04-07T05:46:35.917Z,5.80
2023-04-07T05:49:19.616Z,5.80
2023-04-07T05:51:54.655Z,5.80
2023-04-07T05:54:27.775Z,5.90
2023-04-07T05:57:00.799Z,5.80
2023-04-07T05:59:33.811Z,5.70
2023-04-07T06:02:06.959Z,5.80
2023-04-07T06:04:40.162Z,5.80
2023-04-07T06:07:14.562Z,5.80
2023-04-07T06:09:47.604Z,5.80
2023-04-07T06:12:20.739Z,5.90
2023-04-07T06:14:55.289Z,5.90
2023-04-07T06:17:28.303Z,6.00
2023-04-07T06:20:01.444Z,6.00
2023-04-07T06:22:35.891Z,6.00
2023-04-07T06:25:10.442Z,6.10
2023-04-07T06:27:43.485Z,6.10
2023-04-07T06:30:17.060Z,6.10
2023-04-07T06:32:50.141Z,6.10
2023-04-07T06:35:23.214Z,6.10
2023-04-07T06:37:58.173Z,6.10
2023-04-07T06:40:31.204Z,6.10
2023-04-07T06:43:04.808Z,6.20
2023-04-07T06:45:37.790Z,6.20
2023-04-07T06:48:11.046Z,6.30
2023-04-07T06:50:47.605Z,6.30
2023-04-07T06:53:22.004Z,6.40
2023-04-07T06:56:05.453Z,6.40
2023-04-07T06:58:39.679Z,6.50
2023-04-07T07:01:12.734Z,6.50
2023-04-07T07:03:46.741Z,6.50
2023-04-07T07:06:20.010Z,6.50
2023-04-07T07:08:54.540Z,6.50
2023-04-07T07:11:27.637Z,6.60
2023-04-07T07:14:00.708Z,6.60
2023-04-07T07:16:33.798Z,6.60
2023-04-07T07:19:06.841Z,6.60
2023-04-07T07:21:39.848Z,6.60
2023-04-07T07:24:14.203Z,6.70
2023-04-07T07:26:47.270Z,6.80
2023-04-07T07:29:21.268Z,6.90
2023-04-07T07:31:55.146Z,7.00
2023-04-07T07:34:28.858Z,7.10
2023-04-07T07:37:01.902Z,7.10
2023-04-07T07:39:36.640Z,7.10
2023-04-07T07:42:09.652Z,7.20
2023-04-07T07:44:42.697Z,7.20
2023-04-07T07:47:15.741Z,7.20
2023-04-07T07:49:48.802Z,7.10
2023-04-07T07:52:22.016Z,7.20
2023-04-07T07:54:56.398Z,7.30
2023-04-07T07:57:30.892Z,7.40
2023-04-07T08:00:04.692Z,7.60
2023-04-07T08:02:38.867Z,7.60
2023-04-07T08:05:12.799Z,7.80
2023-04-07T08:07:46.890Z,7.80
2023-04-07T08:10:21.869Z,7.90
2023-04-07T08:12:54.916Z,8.20
2023-04-07T08:15:28.126Z,8.10
2023-04-07T08:18:04.442Z,8.30
2023-04-07T08:20:37.860Z,8.40
2023-04-07T08:23:10.970Z,8.50
2023-04-07T08:25:45.342Z,8.60
2023-04-07T08:28:18.406Z,8.70
2023-04-07T08:30:51.413Z,8.70
2023-04-07T08:33:24.568Z,8.80
2023-04-07T08:35:57.967Z,8.70
2023-04-07T08:38:31.307Z,8.80
2023-04-07T08:41:13.442Z,8.90
2023-04-07T08:43:49.613Z,9.00
2023-04-07T08:46:24.385Z,8.90
2023-04-07T08:48:59.205Z,9.20
2023-04-07T08:51:33.841Z,9.20
2023-04-07T08:54:11.522Z,9.40
2023-04-07T08:56:46.528Z,9.60
2023-04-07T08:59:23.137Z,9.70
2023-04-07T09:01:56.507Z,9.70
2023-04-07T09:04:30.247Z,10.00
2023-04-07T09:07:03.333Z,10.20
2023-04-07T09:09:36.683Z,10.60
2023-04-07T09:12:11.389Z,10.70
2023-04-07T09:14:44.507Z,10.70
2023-04-07T09:17:17.600Z,10.90
2023-04-07T09:19:50.689Z,10.90
2023-04-07T09:22:37.768Z,10.90
2023-04-07T09:25:16.721Z,11.00
2023-04-07T09:28:02.915Z,10.90
2023-04-07T09:30:35.999Z,10.80
2023-04-07T09:33:10.496Z,10.90
2023-04-07T09:35:54.248Z,11.10
2023-04-07T09:38:35.537Z,11.00
2023-04-07T09:41:10.557Z,10.90
2023-04-07T09:43:46.930Z,10.80
2023-04-07T09:46:21.049Z,10.80
2023-04-07T09:49:05.791Z,10.90
2023-04-07T09:51:39.123Z,11.00
2023-04-07T09:54:12.452Z,10.90
2023-04-07T09:56:46.667Z,10.80
2023-04-07T09:59:21.860Z,10.80
2023-04-07T10:01:56.899Z,10.80
2023-04-07T10:04:30.920Z,10.80
2023-04-07T10:07:04.357Z,10.80
2023-04-07T10:09:37.422Z,10.70
2023-04-07T10:12:10.481Z,10.70
2023-04-07T10:14:47.130Z,10.80
2023-04-07T10:17:21.353Z,10.80
2023-04-07T10:19:54.796Z,10.90
2023-04-07T10:22:29.146Z,11.10
2023-04-07T10:25:08.074Z,11.40
2023-04-07T10:27:50.467Z,11.60
2023-04-07T10:30:28.180Z,11.60
2023-04-07T10:33:01.521Z,11.90
2023-04-07T10:36:06.197Z,12.00
2023-04-07T10:38:39.301Z,12.10
2023-04-07T10:41:35.676Z,12.00
2023-04-07T10:44:10.961Z,12.10
2023-04-07T10:47:07.617Z,12.20
2023-04-07T10:49:40.630Z,12.30
2023-04-07T10:52:24.221Z,12.50
2023-04-07T10:55:37.813Z,12.30
2023-04-07T10:58:29.068Z,12.20
2023-04-07T11:01:21.835Z,12.10
2023-04-07T11:04:01.428Z,12.00
2023-04-07T11:06:34.688Z,11.90
2023-04-07T11:09:20.269Z,12.00
2023-04-07T11:11:53.505Z,11.90
2023-04-07T11:14:28.199Z,11.70
2023-04-07T11:17:02.117Z,11.60
2023-04-07T11:19:52.449Z,11.70
2023-04-07T11:22:30.235Z,11.80
2023-04-07T11:25:03.849Z,11.90
2023-04-07T11:27:36.946Z,12.00
2023-04-07T11:30:11.911Z,12.10
2023-04-07T11:32:50.806Z,12.30
2023-04-07T11:35:26.292Z,12.40
2023-04-07T11:38:00.884Z,12.50
2023-04-07T11:40:36.940Z,12.50
2023-04-07T11:43:18.449Z,12.50
2023-04-07T11:46:09.525Z,12.40
2023-04-07T11:48:44.530Z,12.50
2023-04-07T11:51:20.962Z,12.70
2023-04-07T11:53:57.391Z,12.70
2023-04-07T11:56:30.536Z,12.70
2023-04-07T11:59:03.670Z,13.00
2023-04-07T12:01:43.150Z,13.00
2023-04-07T12:04:17.288Z,12.80
2023-04-07T12:06:52.008Z,12.80
2023-04-07T12:09:32.286Z,12.90
2023-04-07T12:12:07.746Z,13.00
2023-04-07T12:14:40.837Z,13.10
2023-04-07T12:17:22.227Z,13.10
2023-04-07T12:19:55.336Z,13.10
2023-04-07T12:22:29.644Z,13.30
2023-04-07T12:25:02.637Z,13.30
2023-04-07T12:27:42.701Z,13.00
2023-04-07T12:30:16.743Z,13.10
2023-04-07T12:32:49.924Z,13.10
2023-04-07T12:35:23.899Z,13.10
2023-04-07T12:37:58.261Z,13.20
2023-04-07T12:40:31.712Z,13.30
2023-04-07T12:43:04.979Z,13.00
2023-04-07T12:45:38.004Z,13.00
2023-04-07T12:48:11.044Z,13.00
2023-04-07T12:50:44.040Z,12.80
2023-04-07T12:53:18.327Z,13.00
2023-04-07T12:55:51.322Z,13.40
2023-04-07T12:58:24.500Z,13.30
2023-04-07T13:00:58.472Z,13.30
2023-04-07T13:03:31.764Z,13.30
2023-04-07T13:06:05.779Z,13.20
2023-04-07T13:08:40.675Z,13.20
2023-04-07T13:11:14.689Z,13.00
2023-04-07T13:13:47.868Z,13.00
2023-04-07T13:16:21.270Z,12.90
2023-04-07T13:18:54.324Z,13.00
2023-04-07T13:21:45.243Z,13.00
2023-04-07T13:24:21.568Z,12.80
2023-04-07T13:26:54.551Z,12.70
2023-04-07T13:29:27.801Z,12.90
2023-04-07T13:32:07.394Z,13.00
2023-04-07T13:34:40.987Z,13.20
2023-04-07T13:37:13.993Z,13.10
2023-04-07T13:39:48.550Z,13.10
2023-04-07T13:42:22.142Z,13.10
2023-04-07T13:44:55.098Z,13.10
2023-04-07T13:47:30.388Z,13.00
2023-04-07T13:50:05.046Z,13.00
2023-04-07T13:52:38.001Z,12.90
2023-04-07T13:55:12.541Z,13.10
2023-04-07T13:57:45.844Z,13.00
2023-04-07T14:00:19.544Z,13.00
2023-04-07T14:02:52.702Z,12.90
2023-04-07T14:05:25.917Z,12.80
2023-04-07T14:07:58.889Z,12.70
2023-04-07T14:10:34.003Z,12.60
2023-04-07T14:13:07.017Z,12.40
2023-04-07T14:15:40.032Z,12.20
2023-04-07T14:18:13.104Z,11.80
2023-04-07T14:20:46.583Z,11.60
2023-04-07T14:23:33.793Z,11.30
2023-04-07T14:26:12.490Z,11.10
2023-04-07T14:28:45.724Z,11.00
2023-04-07T14:31:18.818Z,10.80
2023-04-07T14:33:52.052Z,10.70
2023-04-07T14:36:25.213Z,10.60
2023-04-07T14:38:58.357Z,10.50
2023-04-07T14:41:32.723Z,10.50
2023-04-07T14:44:06.242Z,10.50
2023-04-07T14:46:39.276Z,10.40
2023-04-07T14:49:13.104Z,10.50
2023-04-07T14:51:46.352Z,10.50
2023-04-07T14:54:19.336Z,10.60
2023-04-07T14:56:53.656Z,10.50
2023-04-07T14:59:26.657Z,10.50
2023-04-07T15:01:59.728Z,10.50
2023-04-07T15:04:33.083Z,10.40
2023-04-07T15:07:06.801Z,10.40
2023-04-07T15:09:39.933Z,10.30
2023-04-07T15:12:14.316Z,10.40
2023-04-07T15:14:47.337Z,10.30
2023-04-07T15:17:27.587Z,10.30
2023-04-07T15:20:07.803Z,10.30
2023-04-07T15:22:40.886Z,10.20
2023-04-07T15:25:13.848Z,10.20
2023-04-07T15:27:48.227Z,10.20
2023-04-07T15:30:21.313Z,10.30
2023-04-07T15:33:00.926Z,10.30
2023-04-07T15:35:33.982Z,10.40
2023-04-07T15:38:07.086Z,10.40
2023-04-07T15:40:42.061Z,10.50
2023-04-07T15:43:16.406Z,10.50
2023-04-07T15:45:49.479Z,10.50
2023-04-07T15:48:22.584Z,10.50
2023-04-07T15:50:55.722Z,10.60
2023-04-07T15:53:28.813Z,10.60
2023-04-07T15:56:02.291Z,10.60
2023-04-07T15:58:36.708Z,10.60
2023-04-07T16:01:09.796Z,10.60
2023-04-07T16:03:42.868Z,10.60
2023-04-07T16:06:15.960Z,10.60
2023-04-07T16:08:49.038Z,10.50
2023-04-07T16:11:22.325Z,10.60
2023-04-07T16:13:56.642Z,10.60
2023-04-07T16:16:29.647Z,10.60
2023-04-07T16:19:02.632Z,10.60
2023-04-07T16:21:35.654Z,10.50
2023-04-07T16:24:08.622Z,10.50
2023-04-07T16:26:41.578Z,10.60
2023-04-07T16:29:15.961Z,10.60
2023-04-07T16:31:49.024Z,10.60
2023-04-07T16:34:22.005Z,10.60
2023-04-07T16:36:54.995Z,10.60
2023-04-07T16:39:29.558Z,10.50
2023-04-07T16:42:03.377Z,10.50
2023-04-07T16:44:37.694Z,10.40
2023-04-07T16:47:10.726Z,10.40
2023-04-07T16:49:43.754Z,10.30
2023-04-07T16:52:18.240Z,10.30
2023-04-07T16:54:52.526Z,10.30
2023-04-07T16:57:25.547Z,10.20
2023-04-07T17:00:00.466Z,10.10
2023-04-07T17:02:33.800Z,10.00
2023-04-07T17:05:08.228Z,9.90
2023-04-07T17:07:41.190Z,9.80
2023-04-07T17:10:14.608Z,9.70
2023-04-07T17:12:52.131Z,9.60
2023-04-07T17:15:26.532Z,9.60
2023-04-07T17:17:59.726Z,9.50
2023-04-07T17:20:32.726Z,9.50
2023-04-07T17:23:05.696Z,9.30
2023-04-07T17:25:38.887Z,9.30
2023-04-07T17:28:11.961Z,9.30
2023-04-07T17:30:46.305Z,9.30
2023-04-07T17:33:19.288Z,9.30
2023-04-07T17:35:52.288Z,9.30
2023-04-07T17:38:25.285Z,9.20
2023-04-07T17:40:59.424Z,9.20
2023-04-07T17:43:32.702Z,9.20
2023-04-07T17:46:07.138Z,9.20
2023-04-07T17:48:40.112Z,9.20
2023-04-07T17:51:13.945Z,9.20
2023-04-07T17:53:47.340Z,9.20
2023-04-07T17:56:20.718Z,9.20
2023-04-07T17:58:53.731Z,9.10
2023-04-07T18:01:28.079Z,9.10
2023-04-07T18:04:01.503Z,9.10
2023-04-07T18:06:36.904Z,9.00
2023-04-07T18:09:10.153Z,9.00
2023-04-07T18:11:43.208Z,8.90
2023-04-07T18:14:16.546Z,8.90
2023-04-07T18:16:50.889Z,8.90
2023-04-07T18:19:24.000Z,8.80
2023-04-07T18:21:57.044Z,8.80
2023-04-07T18:24:30.027Z,8.80
2023-04-07T18:27:04.021Z,8.80
2023-04-07T18:29:37.008Z,8.70
2023-04-07T18:32:11.421Z,8.70
2023-04-07T18:34:47.775Z,8.70
2023-04-07T18:37:21.034Z,8.80
2023-04-07T18:39:54.341Z,8.70
2023-04-07T18:42:27.485Z,8.70
2023-04-07T18:45:00.650Z,8.70
2023-04-07T18:47:35.012Z,8.70
2023-04-07T18:50:09.540Z,8.70
2023-04-07T18:52:42.480Z,8.60
2023-04-07T18:55:15.433Z,8.60
2023-04-07T18:57:48.866Z,8.60
2023-04-07T19:00:22.017Z,8.60
2023-04-07T19:02:56.553Z,8.60
2023-04-07T19:05:29.642Z,8.60
2023-04-07T19:08:02.568Z,8.60
2023-04-07T19:10:35.999Z,8.60
2023-04-07T19:13:08.952Z,8.60
2023-04-07T19:15:46.055Z,8.60
2023-04-07T19:18:20.978Z,8.50
2023-04-07T19:20:53.926Z,8.50
2023-04-07T19:23:27.076Z,8.50
2023-04-07T19:26:00.803Z,8.50
2023-04-07T19:28:33.881Z,8.50
2023-04-07T19:31:07.157Z,8.60
2023-04-07T19:33:41.543Z,8.60
2023-04-07T19:36:14.574Z,8.50
2023-04-07T19:38:47.524Z,8.50
2023-04-07T19:41:21.114Z,8.50
2023-04-07T19:43:54.259Z,8.50
2023-04-07T19:46:27.301Z,8.50
2023-04-07T19:49:01.690Z,8.40
2023-04-07T19:51:35.310Z,8.40
2023-04-07T19:54:08.401Z,8.40
2023-04-07T19:56:41.459Z,8.40
2023-04-07T19:59:14.633Z,8.40
2023-04-07T20:01:47.795Z,8.40
2023-04-07T20:04:22.276Z,8.40
2023-04-07T20:06:55.361Z,8.40
2023-04-07T20:09:28.634Z,8.30
2023-04-07T20:12:01.780Z,8.30
2023-04-07T20:14:34.882Z,8.30
2023-04-07T20:17:08.139Z,8.30
2023-04-07T20:19:43.007Z,8.30
2023-04-07T20:22:16.116Z,8.30
2023-04-07T20:24:49.162Z,8.30
2023-04-07T20:27:22.229Z,8.30
2023-04-07T20:29:55.265Z,8.30
2023-04-07T20:32:28.970Z,8.20
2023-04-07T20:35:04.800Z,8.20
2023-04-07T20:37:37.841Z,8.20
2023-04-07T20:40:12.488Z,8.20
2023-04-07T20:42:46.671Z,8.20
2023-04-07T20:45:19.983Z,8.20
2023-04-07T20:47:52.992Z,8.30
2023-04-07T20:50:28.445Z,8.20
2023-04-07T20:53:01.511Z,8.20
2023-04-07T20:55:34.518Z,8.20
2023-04-07T20:58:07.535Z,8.20
2023-04-07T21:00:40.778Z,8.20
2023-04-07T21:03:14.122Z,8.20
2023-04-07T21:05:49.768Z,8.20
2023-04-07T21:08:24.490Z,8.20
2023-04-07T21:10:57.603Z,8.20
2023-04-07T21:13:30.628Z,8.20
2023-04-07T21:16:05.585Z,8.20
2023-04-07T21:18:38.636Z,8.20
2023-04-07T21:21:12.987Z,8.20
2023-04-07T21:23:46.116Z,8.20
2023-04-07T21:26:19.108Z,8.20
2023-04-07T21:28:52.902Z,8.10
2023-04-07T21:31:26.689Z,8.20
2023-04-07T21:33:59.786Z,8.20
2023-04-07T21:36:34.592Z,8.20
2023-04-07T21:39:08.062Z,8.20
2023-04-07T21:41:41.935Z,8.20
2023-04-07T21:44:19.797Z,8.20
2023-04-07T21:46:53.096Z,8.20
2023-04-07T21:49:26.428Z,8.20
2023-04-07T21:52:00.939Z,8.20
2023-04-07T21:54:34.279Z,8.30
2023-04-07T21:57:07.346Z,8.20
2023-04-07T21:59:40.512Z,8.20
2023-04-07T22:02:14.068Z,8.20
2023-04-07T22:04:47.220Z,8.20
2023-04-07T22:07:21.629Z,8.20
2023-04-07T22:09:54.673Z,8.10
2023-04-07T22:12:27.705Z,8.10
2023-04-07T22:15:00.780Z,8.10
2023-04-07T22:17:33.946Z,8.10
2023-04-07T22:20:10.599Z,8.10
2023-04-07T22:22:44.980Z,8.10
2023-04-07T22:25:18.285Z,8.10
2023-04-07T22:27:52.271Z,8.10
2023-04-07T22:30:25.764Z,8.00
2023-04-07T22:32:58.854Z,8.10
2023-04-07T22:35:32.125Z,8.10
2023-04-07T22:38:06.959Z,8.10
2023-04-07T22:40:39.951Z,8.00
2023-04-07T22:43:13.022Z,8.10
2023-04-07T22:45:46.054Z,8.10
2023-04-07T22:48:19.294Z,8.10
2023-04-07T22:50:52.261Z,8.00
2023-04-07T22:53:26.603Z,8.00
2023-04-07T22:55:59.586Z,8.00
2023-04-07T22:58:32.569Z,8.00
2023-04-07T23:01:05.667Z,8.00
2023-04-07T23:03:38.823Z,7.90
2023-04-07T23:06:11.950Z,8.00
2023-04-07T23:08:46.578Z,8.00
2023-04-07T23:11:20.957Z,8.00
2023-04-07T23:13:55.110Z,8.00
2023-04-07T23:16:28.170Z,8.00
2023-04-07T23:19:01.562Z,8.00
2023-04-07T23:21:34.633Z,8.00
2023-04-07T23:24:08.985Z,8.00
2023-04-07T23:26:42.031Z,8.00
2023-04-07T23:29:15.098Z,8.00
2023-04-07T23:31:48.905Z,8.00
2023-04-07T23:34:22.144Z,8.00
2023-04-07T23:36:55.167Z,7.90
2023-04-07T23:39:29.542Z,7.90
2023-04-07T23:42:03.220Z,7.90
2023-04-07T23:44:36.556Z,7.90
2023-04-07T23:47:09.650Z,7.90
2023-04-07T23:49:42.649Z,8.00
2023-04-07T23:52:16.207Z,8.00
2023-04-07T23:54:50.639Z,8.00
2023-04-07T23:57:23.830Z,8.00
2023-04-07T23:59:57.175Z,8.00
